Terminal Aerodrome Forecast
Issued by NWS

Home | Current Version | Previous Version | Text Only | Print | Product List | Glossary Off
Versions: 1 2 3 4 5 6 7 8 9 10 11 12 13 14 15 16 17 18 19 20 21

636
FTUS43 KICT 140832 AAB
TAFRSL
TAF AMD
KRSL 140832Z 1409/1506 22009KT 4SM -SN BKN023 OVC040
      TEMPO 1409/1411 P6SM NSW SCT025 OVC040
     FM141100 22007KT P6SM OVC040
     FM141500 28007KT P6SM OVC035
     FM141800 29009KT P6SM SCT035=

USA.gov is the U.S. government's official web portal to all federal, state and local government web resources and services.